sensor_id;sensor_type;location;lat;lon;timestamp;P1;durP1;ratioP1;P2;durP2;ratioP2
10719;SDS011;5411;58.386;15.560;2023-03-23T00:01:34;12.77;;;2.97;;
10719;SDS011;5411;58.386;15.560;2023-03-23T00:04:02;4.73;;;2.57;;
10719;SDS011;5411;58.386;15.560;2023-03-23T00:06:30;12.60;;;3.40;;
10719;SDS011;5411;58.386;15.560;2023-03-23T00:08:59;12.97;;;3.23;;
10719;SDS011;5411;58.386;15.560;2023-03-23T00:11:30;13.60;;;3.37;;
10719;SDS011;5411;58.386;15.560;2023-03-23T00:14:00;9.30;;;3.00;;
10719;SDS011;5411;58.386;15.560;2023-03-23T00:16:28;12.53;;;3.40;;
10719;SDS011;5411;58.386;15.560;2023-03-23T00:18:58;11.60;;;2.80;;
10719;SDS011;5411;58.386;15.560;2023-03-23T00:21:26;10.87;;;3.07;;
10719;SDS011;5411;58.386;15.560;2023-03-23T00:24:03;14.63;;;3.33;;
10719;SDS011;5411;58.386;15.560;2023-03-23T00:26:34;16.17;;;3.90;;
10719;SDS011;5411;58.386;15.560;2023-03-23T00:29:06;13.73;;;3.30;;
10719;SDS011;5411;58.386;15.560;2023-03-23T00:31:35;12.93;;;3.60;;
10719;SDS011;5411;58.386;15.560;2023-03-23T00:34:03;10.73;;;2.87;;
10719;SDS011;5411;58.386;15.560;2023-03-23T00:36:31;15.77;;;4.23;;
10719;SDS011;5411;58.386;15.560;2023-03-23T00:38:58;16.13;;;4.60;;
10719;SDS011;5411;58.386;15.560;2023-03-23T00:41:26;11.53;;;3.30;;
10719;SDS011;5411;58.386;15.560;2023-03-23T00:43:56;8.27;;;2.87;;
10719;SDS011;5411;58.386;15.560;2023-03-23T00:46:25;11.40;;;3.27;;
10719;SDS011;5411;58.386;15.560;2023-03-23T00:48:53;10.70;;;3.53;;
10719;SDS011;5411;58.386;15.560;2023-03-23T00:51:22;17.30;;;3.57;;
10719;SDS011;5411;58.386;15.560;2023-03-23T00:53:49;13.57;;;3.70;;
10719;SDS011;5411;58.386;15.560;2023-03-23T00:56:17;9.73;;;3.67;;
10719;SDS011;5411;58.386;15.560;2023-03-23T00:58:44;14.37;;;3.50;;
10719;SDS011;5411;58.386;15.560;2023-03-23T01:01:13;13.40;;;3.97;;
10719;SDS011;5411;58.386;15.560;2023-03-23T01:03:39;12.73;;;4.27;;
10719;SDS011;5411;58.386;15.560;2023-03-23T01:06:07;15.93;;;3.40;;
10719;SDS011;5411;58.386;15.560;2023-03-23T01:08:38;14.23;;;3.87;;
10719;SDS011;5411;58.386;15.560;2023-03-23T01:11:12;12.90;;;3.30;;
10719;SDS011;5411;58.386;15.560;2023-03-23T01:13:41;13.97;;;4.10;;
10719;SDS011;5411;58.386;15.560;2023-03-23T01:16:09;11.23;;;3.63;;
10719;SDS011;5411;58.386;15.560;2023-03-23T01:18:38;12.60;;;3.40;;
10719;SDS011;5411;58.386;15.560;2023-03-23T01:21:11;16.30;;;3.60;;
10719;SDS011;5411;58.386;15.560;2023-03-23T01:23:47;13.20;;;3.47;;
10719;SDS011;5411;58.386;15.560;2023-03-23T01:26:16;7.57;;;3.50;;
10719;SDS011;5411;58.386;15.560;2023-03-23T01:28:46;14.93;;;3.90;;
10719;SDS011;5411;58.386;15.560;2023-03-23T01:31:15;13.93;;;4.00;;
10719;SDS011;5411;58.386;15.560;2023-03-23T01:33:45;11.40;;;3.67;;
10719;SDS011;5411;58.386;15.560;2023-03-23T01:36:15;15.37;;;4.43;;
10719;SDS011;5411;58.386;15.560;2023-03-23T01:38:46;11.10;;;3.67;;
10719;SDS011;5411;58.386;15.560;2023-03-23T01:41:15;13.13;;;3.63;;
10719;SDS011;5411;58.386;15.560;2023-03-23T01:43:53;17.97;;;3.90;;
10719;SDS011;5411;58.386;15.560;2023-03-23T01:46:23;10.90;;;3.80;;
10719;SDS011;5411;58.386;15.560;2023-03-23T01:48:53;10.33;;;3.30;;
10719;SDS011;5411;58.386;15.560;2023-03-23T01:51:23;15.23;;;4.83;;
10719;SDS011;5411;58.386;15.560;2023-03-23T01:53:53;12.30;;;4.23;;
10719;SDS011;5411;58.386;15.560;2023-03-23T01:56:24;12.57;;;4.00;;
10719;SDS011;5411;58.386;15.560;2023-03-23T01:58:59;13.17;;;3.70;;
10719;SDS011;5411;58.386;15.560;2023-03-23T02:01:26;15.03;;;4.13;;
10719;SDS011;5411;58.386;15.560;2023-03-23T02:03:55;12.33;;;2.90;;
10719;SDS011;5411;58.386;15.560;2023-03-23T02:06:23;10.93;;;3.77;;
10719;SDS011;5411;58.386;15.560;2023-03-23T02:08:50;11.63;;;4.07;;
10719;SDS011;5411;58.386;15.560;2023-03-23T02:11:19;16.67;;;3.93;;
10719;SDS011;5411;58.386;15.560;2023-03-23T02:13:47;14.43;;;3.80;;
10719;SDS011;5411;58.386;15.560;2023-03-23T02:16:18;15.77;;;3.73;;
10719;SDS011;5411;58.386;15.560;2023-03-23T02:18:57;13.67;;;3.67;;
10719;SDS011;5411;58.386;15.560;2023-03-23T02:21:51;14.63;;;3.90;;
10719;SDS011;5411;58.386;15.560;2023-03-23T02:24:52;16.60;;;4.27;;
10719;SDS011;5411;58.386;15.560;2023-03-23T02:27:46;14.90;;;3.93;;
10719;SDS011;5411;58.386;15.560;2023-03-23T02:30:38;12.00;;;3.60;;
10719;SDS011;5411;58.386;15.560;2023-03-23T02:36:12;10.47;;;3.43;;
10719;SDS011;5411;58.386;15.560;2023-03-23T02:38:49;17.27;;;3.87;;
10719;SDS011;5411;58.386;15.560;2023-03-23T02:41:24;17.47;;;3.63;;
10719;SDS011;5411;58.386;15.560;2023-03-23T02:43:55;15.77;;;4.03;;
10719;SDS011;5411;58.386;15.560;2023-03-23T02:46:24;13.63;;;3.70;;
10719;SDS011;5411;58.386;15.560;2023-03-23T02:48:53;18.37;;;3.87;;
10719;SDS011;5411;58.386;15.560;2023-03-23T02:51:23;17.50;;;3.93;;
10719;SDS011;5411;58.386;15.560;2023-03-23T02:53:52;10.60;;;3.63;;
10719;SDS011;5411;58.386;15.560;2023-03-23T02:56:30;17.30;;;4.63;;
10719;SDS011;5411;58.386;15.560;2023-03-23T02:58:58;12.10;;;4.03;;
10719;SDS011;5411;58.386;15.560;2023-03-23T03:04:32;14.60;;;4.27;;
10719;SDS011;5411;58.386;15.560;2023-03-23T03:07:10;16.40;;;4.77;;
10719;SDS011;5411;58.386;15.560;2023-03-23T03:10:00;19.33;;;4.30;;
10719;SDS011;5411;58.386;15.560;2023-03-23T03:12:40;17.57;;;4.13;;
10719;SDS011;5411;58.386;15.560;2023-03-23T03:15:15;15.60;;;4.73;;
10719;SDS011;5411;58.386;15.560;2023-03-23T03:17:51;18.37;;;4.23;;
10719;SDS011;5411;58.386;15.560;2023-03-23T03:20:26;15.07;;;4.07;;
10719;SDS011;5411;58.386;15.560;2023-03-23T03:22:56;23.50;;;4.27;;
10719;SDS011;5411;58.386;15.560;2023-03-23T03:25:26;19.43;;;3.87;;
10719;SDS011;5411;58.386;15.560;2023-03-23T03:27:54;18.23;;;4.10;;
10719;SDS011;5411;58.386;15.560;2023-03-23T03:30:25;9.73;;;3.20;;
10719;SDS011;5411;58.386;15.560;2023-03-23T03:32:55;15.37;;;3.83;;
10719;SDS011;5411;58.386;15.560;2023-03-23T03:35:26;16.60;;;3.67;;
10719;SDS011;5411;58.386;15.560;2023-03-23T03:37:54;14.93;;;3.33;;
10719;SDS011;5411;58.386;15.560;2023-03-23T03:40:22;14.30;;;4.17;;
10719;SDS011;5411;58.386;15.560;2023-03-23T03:42:51;17.47;;;3.87;;
10719;SDS011;5411;58.386;15.560;2023-03-23T03:45:19;18.70;;;4.03;;
10719;SDS011;5411;58.386;15.560;2023-03-23T03:47:46;14.17;;;4.40;;
10719;SDS011;5411;58.386;15.560;2023-03-23T03:50:14;18.07;;;4.03;;
10719;SDS011;5411;58.386;15.560;2023-03-23T03:52:43;14.27;;;3.60;;
10719;SDS011;5411;58.386;15.560;2023-03-23T03:55:10;19.23;;;4.40;;
10719;SDS011;5411;58.386;15.560;2023-03-23T03:57:38;16.50;;;3.67;;
10719;SDS011;5411;58.386;15.560;2023-03-23T04:00:07;18.70;;;4.50;;
10719;SDS011;5411;58.386;15.560;2023-03-23T04:02:41;15.00;;;4.30;;
10719;SDS011;5411;58.386;15.560;2023-03-23T04:05:08;13.43;;;3.83;;
10719;SDS011;5411;58.386;15.560;2023-03-23T04:07:36;16.50;;;4.50;;
10719;SDS011;5411;58.386;15.560;2023-03-23T04:10:08;12.13;;;4.37;;
10719;SDS011;5411;58.386;15.560;2023-03-23T04:12:36;17.63;;;4.07;;
10719;SDS011;5411;58.386;15.560;2023-03-23T04:15:03;16.97;;;4.90;;
10719;SDS011;5411;58.386;15.560;2023-03-23T04:17:33;13.33;;;3.33;;
10719;SDS011;5411;58.386;15.560;2023-03-23T04:20:01;12.50;;;3.30;;
10719;SDS011;5411;58.386;15.560;2023-03-23T04:22:38;9.90;;;4.10;;
10719;SDS011;5411;58.386;15.560;2023-03-23T04:25:10;14.70;;;4.13;;
10719;SDS011;5411;58.386;15.560;2023-03-23T04:27:39;12.03;;;3.77;;
10719;SDS011;5411;58.386;15.560;2023-03-23T04:30:09;12.17;;;3.93;;
10719;SDS011;5411;58.386;15.560;2023-03-23T04:32:37;18.07;;;4.20;;
10719;SDS011;5411;58.386;15.560;2023-03-23T04:35:07;15.93;;;4.13;;
10719;SDS011;5411;58.386;15.560;2023-03-23T04:37:36;12.27;;;3.93;;
10719;SDS011;5411;58.386;15.560;2023-03-23T04:40:04;10.03;;;4.00;;
10719;SDS011;5411;58.386;15.560;2023-03-23T04:42:38;15.37;;;4.57;;
10719;SDS011;5411;58.386;15.560;2023-03-23T04:45:12;20.37;;;4.50;;
10719;SDS011;5411;58.386;15.560;2023-03-23T04:47:47;17.20;;;4.53;;
10719;SDS011;5411;58.386;15.560;2023-03-23T04:50:18;13.53;;;3.50;;
10719;SDS011;5411;58.386;15.560;2023-03-23T04:52:49;10.70;;;3.23;;
10719;SDS011;5411;58.386;15.560;2023-03-23T04:55:17;13.00;;;3.90;;
10719;SDS011;5411;58.386;15.560;2023-03-23T04:57:47;14.47;;;3.83;;
10719;SDS011;5411;58.386;15.560;2023-03-23T05:00:14;12.33;;;3.53;;
10719;SDS011;5411;58.386;15.560;2023-03-23T05:02:42;16.03;;;3.50;;
10719;SDS011;5411;58.386;15.560;2023-03-23T05:05:11;14.93;;;4.03;;
10719;SDS011;5411;58.386;15.560;2023-03-23T05:07:39;17.27;;;3.57;;
10719;SDS011;5411;58.386;15.560;2023-03-23T05:10:07;13.20;;;3.80;;
10719;SDS011;5411;58.386;15.560;2023-03-23T05:12:36;18.97;;;4.23;;
10719;SDS011;5411;58.386;15.560;2023-03-23T05:15:06;12.17;;;4.33;;
10719;SDS011;5411;58.386;15.560;2023-03-23T05:17:37;15.07;;;4.20;;
10719;SDS011;5411;58.386;15.560;2023-03-23T05:20:06;12.97;;;3.73;;
10719;SDS011;5411;58.386;15.560;2023-03-23T05:22:36;12.47;;;4.30;;
10719;SDS011;5411;58.386;15.560;2023-03-23T05:25:04;12.57;;;4.30;;
10719;SDS011;5411;58.386;15.560;2023-03-23T05:27:34;17.47;;;5.00;;
10719;SDS011;5411;58.386;15.560;2023-03-23T05:30:01;13.47;;;4.30;;
10719;SDS011;5411;58.386;15.560;2023-03-23T05:32:30;11.87;;;4.27;;
10719;SDS011;5411;58.386;15.560;2023-03-23T05:34:57;16.40;;;5.60;;
10719;SDS011;5411;58.386;15.560;2023-03-23T05:37:26;13.37;;;4.00;;
10719;SDS011;5411;58.386;15.560;2023-03-23T05:39:57;12.03;;;3.73;;
10719;SDS011;5411;58.386;15.560;2023-03-23T05:42:32;8.20;;;3.70;;
10719;SDS011;5411;58.386;15.560;2023-03-23T05:45:01;14.97;;;4.63;;
10719;SDS011;5411;58.386;15.560;2023-03-23T05:47:29;14.23;;;4.40;;
10719;SDS011;5411;58.386;15.560;2023-03-23T05:49:57;16.50;;;4.03;;
10719;SDS011;5411;58.386;15.560;2023-03-23T05:52:25;15.93;;;4.13;;
10719;SDS011;5411;58.386;15.560;2023-03-23T05:54:52;15.77;;;4.63;;
10719;SDS011;5411;58.386;15.560;2023-03-23T05:57:19;12.10;;;4.23;;
10719;SDS011;5411;58.386;15.560;2023-03-23T05:59:47;18.77;;;4.23;;
10719;SDS011;5411;58.386;15.560;2023-03-23T06:02:14;15.30;;;4.07;;
10719;SDS011;5411;58.386;15.560;2023-03-23T06:04:43;15.27;;;4.43;;
10719;SDS011;5411;58.386;15.560;2023-03-23T06:07:10;21.23;;;4.73;;
10719;SDS011;5411;58.386;15.560;2023-03-23T06:09:39;14.87;;;4.57;;
10719;SDS011;5411;58.386;15.560;2023-03-23T06:12:07;12.27;;;3.80;;
10719;SDS011;5411;58.386;15.560;2023-03-23T06:14:36;14.07;;;4.13;;
10719;SDS011;5411;58.386;15.560;2023-03-23T06:17:05;19.10;;;4.70;;
10719;SDS011;5411;58.386;15.560;2023-03-23T06:19:33;13.13;;;3.77;;
10719;SDS011;5411;58.386;15.560;2023-03-23T06:22:03;18.00;;;4.80;;
10719;SDS011;5411;58.386;15.560;2023-03-23T06:24:30;12.97;;;4.17;;
10719;SDS011;5411;58.386;15.560;2023-03-23T06:26:58;13.40;;;4.20;;
10719;SDS011;5411;58.386;15.560;2023-03-23T06:29:25;12.83;;;3.97;;
10719;SDS011;5411;58.386;15.560;2023-03-23T06:31:53;13.60;;;4.20;;
10719;SDS011;5411;58.386;15.560;2023-03-23T06:34:24;17.47;;;4.67;;
10719;SDS011;5411;58.386;15.560;2023-03-23T06:36:51;12.90;;;4.10;;
10719;SDS011;5411;58.386;15.560;2023-03-23T06:39:20;13.37;;;4.43;;
10719;SDS011;5411;58.386;15.560;2023-03-23T06:41:48;13.83;;;3.70;;
10719;SDS011;5411;58.386;15.560;2023-03-23T06:44:18;12.90;;;4.07;;
10719;SDS011;5411;58.386;15.560;2023-03-23T06:46:45;9.73;;;3.60;;
10719;SDS011;5411;58.386;15.560;2023-03-23T06:49:13;14.30;;;4.20;;
10719;SDS011;5411;58.386;15.560;2023-03-23T06:51:40;8.27;;;2.90;;
10719;SDS011;5411;58.386;15.560;2023-03-23T06:54:07;11.10;;;3.23;;
10719;SDS011;5411;58.386;15.560;2023-03-23T06:56:36;12.60;;;4.13;;
10719;SDS011;5411;58.386;15.560;2023-03-23T06:59:03;9.00;;;3.60;;
10719;SDS011;5411;58.386;15.560;2023-03-23T07:01:30;11.57;;;3.83;;
10719;SDS011;5411;58.386;15.560;2023-03-23T07:03:57;14.60;;;4.57;;
10719;SDS011;5411;58.386;15.560;2023-03-23T07:06:25;16.77;;;3.47;;
10719;SDS011;5411;58.386;15.560;2023-03-23T07:08:52;15.33;;;3.93;;
10719;SDS011;5411;58.386;15.560;2023-03-23T07:11:19;13.63;;;4.10;;
10719;SDS011;5411;58.386;15.560;2023-03-23T07:13:48;11.17;;;3.70;;
10719;SDS011;5411;58.386;15.560;2023-03-23T07:16:16;12.67;;;3.83;;
10719;SDS011;5411;58.386;15.560;2023-03-23T07:18:43;11.57;;;3.90;;
10719;SDS011;5411;58.386;15.560;2023-03-23T07:21:10;11.63;;;3.20;;
10719;SDS011;5411;58.386;15.560;2023-03-23T07:23:37;11.57;;;3.67;;
10719;SDS011;5411;58.386;15.560;2023-03-23T07:26:05;9.73;;;4.03;;
10719;SDS011;5411;58.386;15.560;2023-03-23T07:28:33;11.03;;;3.57;;
10719;SDS011;5411;58.386;15.560;2023-03-23T07:31:01;13.23;;;3.77;;
10719;SDS011;5411;58.386;15.560;2023-03-23T07:33:29;7.73;;;3.30;;
10719;SDS011;5411;58.386;15.560;2023-03-23T07:36:00;10.67;;;3.23;;
10719;SDS011;5411;58.386;15.560;2023-03-23T07:38:27;9.27;;;3.70;;
10719;SDS011;5411;58.386;15.560;2023-03-23T07:40:56;10.90;;;3.13;;
10719;SDS011;5411;58.386;15.560;2023-03-23T07:43:23;8.90;;;3.30;;
10719;SDS011;5411;58.386;15.560;2023-03-23T07:45:51;15.30;;;3.87;;
10719;SDS011;5411;58.386;15.560;2023-03-23T07:48:20;11.40;;;3.80;;
10719;SDS011;5411;58.386;15.560;2023-03-23T07:50:47;8.67;;;3.17;;
10719;SDS011;5411;58.386;15.560;2023-03-23T07:53:14;8.10;;;3.17;;
10719;SDS011;5411;58.386;15.560;2023-03-23T07:55:41;7.73;;;3.17;;
10719;SDS011;5411;58.386;15.560;2023-03-23T07:58:08;11.83;;;3.33;;
10719;SDS011;5411;58.386;15.560;2023-03-23T08:00:36;12.93;;;3.40;;
10719;SDS011;5411;58.386;15.560;2023-03-23T08:03:04;6.47;;;3.00;;
10719;SDS011;5411;58.386;15.560;2023-03-23T08:05:33;10.77;;;3.30;;
10719;SDS011;5411;58.386;15.560;2023-03-23T08:08:00;8.40;;;3.20;;
10719;SDS011;5411;58.386;15.560;2023-03-23T08:10:27;8.77;;;3.00;;
10719;SDS011;5411;58.386;15.560;2023-03-23T08:12:55;12.30;;;3.73;;
10719;SDS011;5411;58.386;15.560;2023-03-23T08:15:24;10.40;;;3.33;;
10719;SDS011;5411;58.386;15.560;2023-03-23T08:17:51;10.43;;;3.87;;
10719;SDS011;5411;58.386;15.560;2023-03-23T08:20:18;4.97;;;2.60;;
10719;SDS011;5411;58.386;15.560;2023-03-23T08:22:50;10.33;;;3.30;;
10719;SDS011;5411;58.386;15.560;2023-03-23T08:25:19;5.67;;;2.90;;
10719;SDS011;5411;58.386;15.560;2023-03-23T08:27:46;8.20;;;3.00;;
10719;SDS011;5411;58.386;15.560;2023-03-23T08:30:15;5.23;;;2.87;;
10719;SDS011;5411;58.386;15.560;2023-03-23T08:32:44;6.77;;;3.10;;
10719;SDS011;5411;58.386;15.560;2023-03-23T08:35:17;6.37;;;3.20;;
10719;SDS011;5411;58.386;15.560;2023-03-23T08:37:52;7.30;;;3.37;;
10719;SDS011;5411;58.386;15.560;2023-03-23T08:40:20;8.80;;;3.33;;
10719;SDS011;5411;58.386;15.560;2023-03-23T08:42:49;7.53;;;2.80;;
10719;SDS011;5411;58.386;15.560;2023-03-23T08:45:18;10.60;;;3.10;;
10719;SDS011;5411;58.386;15.560;2023-03-23T08:47:47;5.73;;;2.40;;
10719;SDS011;5411;58.386;15.560;2023-03-23T08:50:17;7.00;;;2.83;;
10719;SDS011;5411;58.386;15.560;2023-03-23T08:52:46;7.00;;;3.37;;
10719;SDS011;5411;58.386;15.560;2023-03-23T08:55:16;8.90;;;3.40;;
10719;SDS011;5411;58.386;15.560;2023-03-23T08:57:43;7.00;;;3.00;;
10719;SDS011;5411;58.386;15.560;2023-03-23T09:00:12;4.37;;;2.27;;
10719;SDS011;5411;58.386;15.560;2023-03-23T09:02:43;6.43;;;2.47;;
10719;SDS011;5411;58.386;15.560;2023-03-23T09:05:12;7.63;;;2.87;;
10719;SDS011;5411;58.386;15.560;2023-03-23T09:07:41;6.10;;;2.37;;
10719;SDS011;5411;58.386;15.560;2023-03-23T09:10:10;7.17;;;2.80;;
10719;SDS011;5411;58.386;15.560;2023-03-23T09:12:39;4.23;;;2.33;;
10719;SDS011;5411;58.386;15.560;2023-03-23T09:15:08;3.63;;;2.20;;
10719;SDS011;5411;58.386;15.560;2023-03-23T09:17:37;9.07;;;2.47;;
10719;SDS011;5411;58.386;15.560;2023-03-23T09:20:07;5.97;;;2.40;;
10719;SDS011;5411;58.386;15.560;2023-03-23T09:22:37;4.80;;;2.33;;
10719;SDS011;5411;58.386;15.560;2023-03-23T09:25:05;6.60;;;2.70;;
10719;SDS011;5411;58.386;15.560;2023-03-23T09:27:34;6.20;;;2.10;;
10719;SDS011;5411;58.386;15.560;2023-03-23T09:30:04;5.17;;;2.13;;
10719;SDS011;5411;58.386;15.560;2023-03-23T09:32:32;5.33;;;2.00;;
10719;SDS011;5411;58.386;15.560;2023-03-23T09:35:00;6.53;;;2.37;;
10719;SDS011;5411;58.386;15.560;2023-03-23T09:37:28;4.87;;;2.80;;
10719;SDS011;5411;58.386;15.560;2023-03-23T09:39:55;4.37;;;2.27;;
10719;SDS011;5411;58.386;15.560;2023-03-23T09:42:30;5.50;;;2.27;;
10719;SDS011;5411;58.386;15.560;2023-03-23T09:45:12;5.70;;;1.93;;
10719;SDS011;5411;58.386;15.560;2023-03-23T09:47:49;5.67;;;2.47;;
10719;SDS011;5411;58.386;15.560;2023-03-23T09:50:28;5.27;;;2.40;;
10719;SDS011;5411;58.386;15.560;2023-03-23T09:53:00;6.20;;;2.10;;
10719;SDS011;5411;58.386;15.560;2023-03-23T09:55:32;4.10;;;1.77;;
10719;SDS011;5411;58.386;15.560;2023-03-23T09:58:03;5.57;;;2.53;;
10719;SDS011;5411;58.386;15.560;2023-03-23T10:00:40;4.73;;;1.93;;
10719;SDS011;5411;58.386;15.560;2023-03-23T10:03:12;7.33;;;1.90;;
10719;SDS011;5411;58.386;15.560;2023-03-23T10:05:41;9.17;;;2.47;;
10719;SDS011;5411;58.386;15.560;2023-03-23T10:08:12;6.77;;;2.33;;
10719;SDS011;5411;58.386;15.560;2023-03-23T10:10:44;6.20;;;2.63;;
10719;SDS011;5411;58.386;15.560;2023-03-23T10:13:23;6.97;;;2.67;;
10719;SDS011;5411;58.386;15.560;2023-03-23T10:16:02;3.13;;;1.57;;
10719;SDS011;5411;58.386;15.560;2023-03-23T10:18:37;5.40;;;1.97;;
10719;SDS011;5411;58.386;15.560;2023-03-23T10:21:10;7.73;;;2.50;;
10719;SDS011;5411;58.386;15.560;2023-03-23T10:23:54;4.80;;;2.50;;
10719;SDS011;5411;58.386;15.560;2023-03-23T10:26:35;5.03;;;2.53;;
10719;SDS011;5411;58.386;15.560;2023-03-23T10:29:11;8.47;;;2.60;;
10719;SDS011;5411;58.386;15.560;2023-03-23T10:31:45;5.53;;;2.10;;
10719;SDS011;5411;58.386;15.560;2023-03-23T10:34:17;5.67;;;2.33;;
10719;SDS011;5411;58.386;15.560;2023-03-23T10:36:51;5.00;;;2.20;;
10719;SDS011;5411;58.386;15.560;2023-03-23T10:39:27;8.97;;;2.83;;
10719;SDS011;5411;58.386;15.560;2023-03-23T10:41:59;7.07;;;2.43;;
10719;SDS011;5411;58.386;15.560;2023-03-23T10:44:33;5.50;;;3.00;;
10719;SDS011;5411;58.386;15.560;2023-03-23T10:47:03;6.53;;;2.73;;
10719;SDS011;5411;58.386;15.560;2023-03-23T10:49:37;5.73;;;2.37;;
10719;SDS011;5411;58.386;15.560;2023-03-23T10:52:15;9.97;;;2.67;;
10719;SDS011;5411;58.386;15.560;2023-03-23T10:54:54;9.27;;;2.80;;
10719;SDS011;5411;58.386;15.560;2023-03-23T10:57:24;6.53;;;3.00;;
10719;SDS011;5411;58.386;15.560;2023-03-23T10:59:57;7.10;;;2.57;;
10719;SDS011;5411;58.386;15.560;2023-03-23T11:02:27;9.43;;;2.50;;
10719;SDS011;5411;58.386;15.560;2023-03-23T11:04:59;7.50;;;2.90;;
10719;SDS011;5411;58.386;15.560;2023-03-23T11:07:29;6.73;;;2.83;;
10719;SDS011;5411;58.386;15.560;2023-03-23T11:10:04;6.80;;;2.60;;
10719;SDS011;5411;58.386;15.560;2023-03-23T11:12:35;7.30;;;2.63;;
10719;SDS011;5411;58.386;15.560;2023-03-23T11:15:25;6.50;;;2.60;;
10719;SDS011;5411;58.386;15.560;2023-03-23T11:17:58;7.27;;;2.90;;
10719;SDS011;5411;58.386;15.560;2023-03-23T11:20:29;8.20;;;2.70;;
10719;SDS011;5411;58.386;15.560;2023-03-23T11:23:01;6.67;;;2.73;;
10719;SDS011;5411;58.386;15.560;2023-03-23T11:25:49;5.83;;;2.80;;
10719;SDS011;5411;58.386;15.560;2023-03-23T11:28:20;7.80;;;2.47;;
10719;SDS011;5411;58.386;15.560;2023-03-23T11:30:48;5.37;;;2.80;;
10719;SDS011;5411;58.386;15.560;2023-03-23T11:33:16;6.80;;;2.67;;
10719;SDS011;5411;58.386;15.560;2023-03-23T11:35:44;9.77;;;3.07;;
10719;SDS011;5411;58.386;15.560;2023-03-23T11:38:15;6.47;;;2.93;;
10719;SDS011;5411;58.386;15.560;2023-03-23T11:40:46;7.73;;;2.83;;
10719;SDS011;5411;58.386;15.560;2023-03-23T11:43:17;10.07;;;3.20;;
10719;SDS011;5411;58.386;15.560;2023-03-23T11:45:50;6.60;;;3.23;;
10719;SDS011;5411;58.386;15.560;2023-03-23T11:48:28;7.50;;;2.60;;
10719;SDS011;5411;58.386;15.560;2023-03-23T11:51:02;8.00;;;2.80;;
10719;SDS011;5411;58.386;15.560;2023-03-23T11:53:41;5.63;;;2.53;;
10719;SDS011;5411;58.386;15.560;2023-03-23T11:56:19;4.97;;;2.43;;
10719;SDS011;5411;58.386;15.560;2023-03-23T11:58:50;5.67;;;2.47;;
10719;SDS011;5411;58.386;15.560;2023-03-23T12:01:21;7.17;;;2.50;;
10719;SDS011;5411;58.386;15.560;2023-03-23T12:04:03;5.73;;;2.20;;
10719;SDS011;5411;58.386;15.560;2023-03-23T12:06:55;5.97;;;2.57;;
10719;SDS011;5411;58.386;15.560;2023-03-23T12:09:32;6.63;;;2.40;;
10719;SDS011;5411;58.386;15.560;2023-03-23T12:12:09;6.10;;;2.53;;
10719;SDS011;5411;58.386;15.560;2023-03-23T12:14:53;5.63;;;2.57;;
10719;SDS011;5411;58.386;15.560;2023-03-23T12:17:30;3.80;;;2.00;;
10719;SDS011;5411;58.386;15.560;2023-03-23T12:20:12;5.27;;;2.03;;
10719;SDS011;5411;58.386;15.560;2023-03-23T12:22:52;4.83;;;1.97;;
10719;SDS011;5411;58.386;15.560;2023-03-23T12:25:40;3.53;;;1.87;;
10719;SDS011;5411;58.386;15.560;2023-03-23T12:28:22;4.80;;;1.87;;
10719;SDS011;5411;58.386;15.560;2023-03-23T12:31:01;3.60;;;2.00;;
10719;SDS011;5411;58.386;15.560;2023-03-23T12:33:39;4.47;;;2.23;;
10719;SDS011;5411;58.386;15.560;2023-03-23T12:36:19;8.67;;;2.33;;
10719;SDS011;5411;58.386;15.560;2023-03-23T12:42:07;4.83;;;2.33;;
10719;SDS011;5411;58.386;15.560;2023-03-23T12:44:44;3.30;;;1.80;;
10719;SDS011;5411;58.386;15.560;2023-03-23T12:47:19;6.90;;;2.10;;
10719;SDS011;5411;58.386;15.560;2023-03-23T12:49:56;7.17;;;2.03;;
10719;SDS011;5411;58.386;15.560;2023-03-23T12:52:30;6.20;;;2.17;;
10719;SDS011;5411;58.386;15.560;2023-03-23T12:55:05;3.87;;;1.87;;
10719;SDS011;5411;58.386;15.560;2023-03-23T12:57:43;3.77;;;1.83;;
10719;SDS011;5411;58.386;15.560;2023-03-23T13:00:21;4.73;;;1.60;;
10719;SDS011;5411;58.386;15.560;2023-03-23T13:02:52;4.37;;;2.07;;
10719;SDS011;5411;58.386;15.560;2023-03-23T13:05:29;6.17;;;2.00;;
10719;SDS011;5411;58.386;15.560;2023-03-23T13:08:09;3.87;;;1.93;;
10719;SDS011;5411;58.386;15.560;2023-03-23T13:10:42;4.50;;;1.80;;
10719;SDS011;5411;58.386;15.560;2023-03-23T13:13:14;5.47;;;1.90;;
10719;SDS011;5411;58.386;15.560;2023-03-23T13:15:51;7.00;;;2.13;;
10719;SDS011;5411;58.386;15.560;2023-03-23T13:18:32;3.33;;;1.80;;
10719;SDS011;5411;58.386;15.560;2023-03-23T13:21:13;5.17;;;1.83;;
10719;SDS011;5411;58.386;15.560;2023-03-23T13:23:48;3.63;;;2.00;;
10719;SDS011;5411;58.386;15.560;2023-03-23T13:26:22;2.63;;;1.40;;
10719;SDS011;5411;58.386;15.560;2023-03-23T13:28:54;3.40;;;1.40;;
10719;SDS011;5411;58.386;15.560;2023-03-23T13:31:24;4.10;;;1.43;;
10719;SDS011;5411;58.386;15.560;2023-03-23T13:34:00;5.30;;;2.00;;
10719;SDS011;5411;58.386;15.560;2023-03-23T13:36:33;3.27;;;1.30;;
10719;SDS011;5411;58.386;15.560;2023-03-23T13:39:06;1.60;;;1.50;;
10719;SDS011;5411;58.386;15.560;2023-03-23T13:41:47;3.73;;;1.20;;
10719;SDS011;5411;58.386;15.560;2023-03-23T13:44:17;2.53;;;1.40;;
10719;SDS011;5411;58.386;15.560;2023-03-23T13:47:06;4.40;;;1.77;;
10719;SDS011;5411;58.386;15.560;2023-03-23T13:49:45;2.67;;;1.80;;
10719;SDS011;5411;58.386;15.560;2023-03-23T13:52:22;3.30;;;1.70;;
10719;SDS011;5411;58.386;15.560;2023-03-23T13:55:07;4.60;;;1.60;;
10719;SDS011;5411;58.386;15.560;2023-03-23T13:57:49;2.73;;;1.30;;
10719;SDS011;5411;58.386;15.560;2023-03-23T14:00:33;5.00;;;1.83;;
10719;SDS011;5411;58.386;15.560;2023-03-23T14:03:04;4.23;;;1.87;;
10719;SDS011;5411;58.386;15.560;2023-03-23T14:05:37;8.03;;;1.50;;
10719;SDS011;5411;58.386;15.560;2023-03-23T14:08:11;4.27;;;1.57;;
10719;SDS011;5411;58.386;15.560;2023-03-23T14:10:42;4.70;;;1.63;;
10719;SDS011;5411;58.386;15.560;2023-03-23T14:13:16;3.23;;;1.50;;
10719;SDS011;5411;58.386;15.560;2023-03-23T14:15:56;6.73;;;1.50;;
10719;SDS011;5411;58.386;15.560;2023-03-23T14:18:29;3.00;;;1.63;;
10719;SDS011;5411;58.386;15.560;2023-03-23T14:20:59;0.80;;;0.70;;
10719;SDS011;5411;58.386;15.560;2023-03-23T14:23:27;0.80;;;0.80;;
10719;SDS011;5411;58.386;15.560;2023-03-23T14:25:56;1.63;;;0.70;;
10719;SDS011;5411;58.386;15.560;2023-03-23T14:28:30;1.17;;;0.70;;
10719;SDS011;5411;58.386;15.560;2023-03-23T14:30:59;0.73;;;0.60;;
10719;SDS011;5411;58.386;15.560;2023-03-23T14:33:26;0.80;;;0.70;;
10719;SDS011;5411;58.386;15.560;2023-03-23T14:35:54;1.23;;;0.70;;
10719;SDS011;5411;58.386;15.560;2023-03-23T14:38:24;2.87;;;1.20;;
10719;SDS011;5411;58.386;15.560;2023-03-23T14:41:02;1.07;;;0.70;;
10719;SDS011;5411;58.386;15.560;2023-03-23T14:43:33;0.93;;;0.90;;
10719;SDS011;5411;58.386;15.560;2023-03-23T14:46:02;1.47;;;0.80;;
10719;SDS011;5411;58.386;15.560;2023-03-23T14:48:34;1.27;;;0.90;;
10719;SDS011;5411;58.386;15.560;2023-03-23T14:51:03;2.63;;;0.90;;
10719;SDS011;5411;58.386;15.560;2023-03-23T14:53:33;1.43;;;1.00;;
10719;SDS011;5411;58.386;15.560;2023-03-23T14:56:06;2.07;;;0.90;;
10719;SDS011;5411;58.386;15.560;2023-03-23T14:58:43;0.93;;;0.80;;
10719;SDS011;5411;58.386;15.560;2023-03-23T15:01:12;1.43;;;0.83;;
10719;SDS011;5411;58.386;15.560;2023-03-23T15:03:42;3.83;;;1.10;;
10719;SDS011;5411;58.386;15.560;2023-03-23T15:06:13;1.83;;;1.17;;
10719;SDS011;5411;58.386;15.560;2023-03-23T15:08:42;1.57;;;0.90;;
10719;SDS011;5411;58.386;15.560;2023-03-23T15:11:13;1.00;;;0.87;;
10719;SDS011;5411;58.386;15.560;2023-03-23T15:13:50;1.97;;;0.90;;
10719;SDS011;5411;58.386;15.560;2023-03-23T15:16:20;3.03;;;0.90;;